WetterOnline ( https://www.wetteronline.de )

Wetter aktuell Hamburg

Aktuelles Wetter: Quickborn (17m)

6-stündlich | Neueste Meldungen
Ortszeit Temperatur Wetter
Do, 24.09. 20:00 11.4° C bedeckt
Do, 24.09. 14:00 16.6° C wolkig
Do, 24.09. 8:00 15.0° C leicht bewölkt
Do, 24.09. 2:00 13.7° C bedeckt
Mi, 23.09. 20:00 13.4° C wolkig
Mi, 23.09. 14:00 21.7° C leicht bewölkt
Mi, 23.09. 8:00 4.9° C Nebel
Mi, 23.09. 2:00 6.1° C Nebel
Ortszeit Temperatur Wetter
Do, 24.09. 21:00 10.2° C wolkig
Do, 24.09. 20:50 10.2° C wolkig
Do, 24.09. 20:40 10.8° C bewölkt
Do, 24.09. 20:30 11.8° C bedeckt
Do, 24.09. 20:20 11.8° C bedeckt
Do, 24.09. 20:10 11.8° C bedeckt
Do, 24.09. 20:00 11.4° C bedeckt
Do, 24.09. 19:30 13.4° C bedeckt
Do, 24.09. 19:00 15.0° C bedeckt
Do, 24.09. 18:30 16.3° C wolkig
Do, 24.09. 18:00 17.1° C wolkig
Ortszeit Relative Feuchte Sichtweite
Do, 24.09. 20:00 80% 50 km
Do, 24.09. 14:00 60% 50 km
Do, 24.09. 8:00 90% 40 km
Do, 24.09. 2:00 93% 15 km
Mi, 23.09. 20:00 90% 22 km
Mi, 23.09. 14:00 51% 14 km
Mi, 23.09. 8:00 99% 0.3 km
Mi, 23.09. 2:00 99% 100 m
Ortszeit Relative Feuchte Sichtweite
Do, 24.09. 21:00 84% 45 km
Do, 24.09. 20:50 84% -
Do, 24.09. 20:40 81% -
Do, 24.09. 20:30 76% 45 km
Do, 24.09. 20:20 76% -
Do, 24.09. 20:10 78% -
Do, 24.09. 20:00 80% 50 km
Do, 24.09. 19:30 69% 60 km
Do, 24.09. 19:00 60% 60 km
Do, 24.09. 18:30 54% >70 km
Do, 24.09. 18:00 51% 65 km
Ortszeit Niederschlagsmenge Niederschlagsart
Do, 24.09. 20:00 0.0 l/m2 in 12 Std. -
Do, 24.09. 14:00 0.0 l/m2 in 6 Std. -
Do, 24.09. 8:00 0.8 l/m2 in 12 Std. Regen
Do, 24.09. 2:00 0.3 l/m2 in 6 Std. Regen
Mi, 23.09. 20:00 0.0 l/m2 in 12 Std. -
Mi, 23.09. 14:00 0.0 l/m2 in 6 Std. -
Mi, 23.09. 8:00 0.0 l/m2 in 12 Std. -
Mi, 23.09. 2:00 0.0 l/m2 in 6 Std. -
Ortszeit Niederschlagsmenge Niederschlagsart
Do, 24.09. 21:00 0.0 l/m2 in 1 Std. -
Do, 24.09. 20:50 keine Meldung -
Do, 24.09. 20:40 keine Meldung -
Do, 24.09. 20:30 0.0 l/m2 in 1 Std. -
Do, 24.09. 20:20 keine Meldung -
Do, 24.09. 20:10 keine Meldung -
Do, 24.09. 20:00 0.0 l/m2 in 1 Std. -
Do, 24.09. 19:30 0.0 l/m2 in 1 Std. -
Do, 24.09. 19:00 0.0 l/m2 in 1 Std. -
Do, 24.09. 18:30 0.0 l/m2 in 1 Std. -
Do, 24.09. 18:00 0.0 l/m2 in 1 Std. -
Ortszeit Stärke Spitze Richtung
km/h Bft. km/h Grad Sektor
Do, 24.09. 20:00 4 1 36 140° SO
Do, 24.09. 14:00 15 3 41 220° SW
Do, 24.09. 8:00 9 2 28 210° SW
Do, 24.09. 2:00 4 1 25 160° S
Mi, 23.09. 20:00 4 1 25 180° S
Mi, 23.09. 14:00 11 2 22 220° SW
Mi, 23.09. 8:00 0 0 4 - -
Mi, 23.09. 2:00 0 0 4 - -
Ortszeit Stärke Spitze Richtung
km/h Bft. km/h Grad Sektor
Do, 24.09. 21:00 6 1 7 150° SO
Do, 24.09. 20:50 6 1 - 150° SO
Do, 24.09. 20:40 4 1 - 160° S
Do, 24.09. 20:30 6 1 7 140° SO
Do, 24.09. 20:20 6 1 - 140° SO
Do, 24.09. 20:10 6 1 - 130° SO
Do, 24.09. 20:00 4 1 7 140° SO
Do, 24.09. 19:30 4 1 7 160° S
Do, 24.09. 19:00 7 2 22 170° S
Do, 24.09. 18:30 7 2 22 190° S
Do, 24.09. 18:00 11 2 26 200° S
Ortszeit Untergrenze Bedeckung Gattung
total tief tief mittel hoch
Do, 24.09. 20:00 4800 m 8/8 8/8 - - -
Do, 24.09. 14:00 1050 m 5/8 5/8 - - -
Do, 24.09. 8:00 480 m 5/8 2/8 - - -
Do, 24.09. 2:00 2100 m 8/8 8/8 - - -
Mi, 23.09. 20:00 9000 m 8/8 0/8 - - -
Mi, 23.09. 14:00 1800 m 2/8 2/8 - - -
Mi, 23.09. 8:00 <30 m 3/8 0/8 - - -
Mi, 23.09. 2:00 <30 m 1/8 0/8 - - -
Ortszeit Bedeckungsgrad in Achtel und Wolkenuntergrenze
Do, 24.09. 21:00 2(5100m) 8(9000m) 8(10500m)
Do, 24.09. 20:50 2(5100m) 8(9000m) 8(10500m)
Do, 24.09. 20:40 4(4800m) 8(8700m) 8(10500m)
Do, 24.09. 20:30 8(4800m) 8(9000m)
Do, 24.09. 20:20 8(4800m)
Do, 24.09. 20:10 8(4800m)
Do, 24.09. 20:00 8(4800m)
Do, 24.09. 19:30 8(5100m)
Do, 24.09. 19:00 7(5400m) 8(6300m) 8(8100m)
Do, 24.09. 18:30 2(6600m) 8(8400m) 8(9000m)
Do, 24.09. 18:00 8(8700m) 8(10500m)
Ortszeit Luftdruck NN (hPa) Tendenz (hPa in 3 Std.)
Do, 24.09. 20:00 1003 - 0,4
Do, 24.09. 14:00 1003 + 1,1
Do, 24.09. 8:00 999 + 0,7
Do, 24.09. 2:00 1000 - 1,7
Mi, 23.09. 20:00 1002 - 1,1
Mi, 23.09. 14:00 1004 - 0,7
Mi, 23.09. 8:00 1005 - 0,1
Mi, 23.09. 2:00 1006 - 1,1
Ortszeit Luftdruck NN (hPa) Tendenz (hPa in 3 Std.)
Do, 24.09. 21:00 1002 - 0,4
Do, 24.09. 20:50 1002 keine Meldung
Do, 24.09. 20:40 1002 keine Meldung
Do, 24.09. 20:30 1002 - 0,5
Do, 24.09. 20:20 1002 keine Meldung
Do, 24.09. 20:10 1002 keine Meldung
Do, 24.09. 20:00 1003 - 0,4
Do, 24.09. 19:30 1002 - 0,4
Do, 24.09. 19:00 1002 - 0,6
Do, 24.09. 18:30 1003 - 0,7
Do, 24.09. 18:00 1003 - 0,6
Ortszeit Schneehöhe (cm)
Do, 24.09. 20:00 -
Do, 24.09. 14:00 -
Do, 24.09. 8:00 -
Do, 24.09. 2:00 -
Mi, 23.09. 20:00 -
Mi, 23.09. 14:00 -
Mi, 23.09. 8:00 -
Mi, 23.09. 2:00 -
Ortszeit Schneehöhe (cm)
Do, 24.09. 21:00 -
Do, 24.09. 20:50 -
Do, 24.09. 20:40 -
Do, 24.09. 20:30 -
Do, 24.09. 20:20 -
Do, 24.09. 20:10 -
Do, 24.09. 20:00 -
Do, 24.09. 19:30 -
Do, 24.09. 19:00 -
Do, 24.09. 18:30 -
Do, 24.09. 18:00 -
Link zu dieser Seite / Seite empfehlen

Das Wetter in ...